Nashville, Tennessee
Traffic Map
Current Weather Conditions
Nashville, Tennessee
Broken Clouds
Broken Clouds
31°
Feels Like: 31°
Wind Chill: 31° Ceiling: 25000
Heat Index: 31° Visibility: 10mi
Dew Point: 15° Wind: 0mph
Humidity: 39% Direction: ° ()
Pressure: 30.1in Gusts: 0mph
Raw Report DataKBNA 241753Z 00000KT 10SM FEW055 BKN250 31/15 A3010 RMK AO2 SLP186 T03060150 10306 20222 58013
Traffic Incident Summary
Active as of:
Severity:
Category:
InformationThere was an issue retrieving the traffic information for this location. Please try a different location or try again shortly.
Advertisements